x

Boston 16 Nm East Of Boston, Ma (44013) Wave Buoy

12:50pm - Wed 1st Oct 2014 All times are EDT. -4 hours from GMT.

  • Sig Wave height 5.9ft
  • Swell Direction
  • Peak Period 6s
  • Average Period 5s
  • Wind
    22mph, 25mph gusts
  • Sea Temp 60°f
  • Air Temp 57°f
  • Sea Pressure 1018.3mb
  • Boston 16 Nm East Of Boston, Ma
  • Boston 16 Nm East Of Boston, Ma

More Historic Weather Station data

Upgrade to MSW Pro to gain access to the past 30 days of data for over 8000 Wavebouys and Weather Stations around the globe.

Join Pro

Comparision Forecast

View Surf forecast
   
Wed 10/01 12:50pm 6ft 6s 5s 22 25 mph 1018.3mb 60f 57f
11:50am 5ft 6s 5s 25 27 mph 1018mb 60f 57f
10:50am 5ft 6s 5s 25 29 mph 1017.8mb 60f 57f
9:50am 5ft 6s 5s 25 29 mph 1017.7mb 60f 57f
8:50am 5ft 6s 5s 22 25 mph 1017.4mb 60f 57f
7:50am 4.5ft 6s 5s 22 27 mph 1016.8mb 60f 57f
6:50am 5ft 6s 5s 22 27 mph 1016.5mb 60f 57f
5:50am 5ft 6s 5s 22 25 mph 1016.1mb 60f 57f
4:50am 4.5ft 5s 5s 20 25 mph 1015.7mb 60f 58f
3:50am 5ft 6s 5s 22 25 mph 1015.6mb 60f 57f
2:50am 4.5ft 5s 5s 20 27 mph 1015.9mb 60f 57f
1:50am 4.5ft 6s 4s 20 25 mph 1016.5mb 60f 57f
12:50am 4.5ft 7s 5s 20 22 mph 1016.7mb 60f 58f
Tue 09/30 11:50pm 4.5ft 6s 5s 20 22 mph 1016.6mb 60f 57f
10:50pm 4.5ft 6s 5s 18 22 mph 1016.8mb 60f 58f
9:50pm 4.5ft 7s 5s 18 22 mph 1016.5mb 60f 57f
8:50pm 4.5ft 6s 5s 18 20 mph 1016.7mb 60f 57f
7:50pm 4.5ft 7s 5s 16 18 mph 1016.9mb 60f 56f
6:50pm 4.5ft 6s 5s 18 20 mph 1016.3mb 60f 57f
5:50pm 5ft 6s 5s 18 22 mph 1015.8mb 60f 56f
4:50pm 5ft 7s 5s 20 25 mph 1015mb 60f 56f
3:50pm 5ft 7s 5s 22 25 mph 1015.3mb 60f 56f
2:50pm 5ft 7s 5s 20 22 mph 1015.4mb 60f 56f
1:50pm 5ft 7s 5s 18 20 mph 1016.2mb 60f 56f
12:50pm 5.5ft 8s 5s 16 18 mph 1016.9mb 60f 56f
11:50am 5.5ft 8s 5s 18 20 mph 1016.8mb 60f 56f
10:50am 6ft 8s 5s 18 20 mph 1017.2mb 60f 56f
9:50am 6ft 8s 5s 20 25 mph 1017mb 61f 56f
8:50am 6.5ft 8s 5s 20 25 mph 1017.1mb 61f 56f
7:50am 5.5ft 8s 5s 20 25 mph 1016.7mb 61f 56f
6:50am 6ft 8s 5s 20 25 mph 1016mb 61f 56f
5:50am 6ft 8s 5s 22 25 mph 1015.2mb 61f 56f
4:50am 5.5ft 8s 5s 20 25 mph 1015.3mb 61f 56f
3:50am 6ft 8s 6s 20 25 mph 1015.2mb 61f 57f
2:50am 6.5ft 8s 6s 16 20 mph 1015.8mb 61f 57f
1:50am 6ft 8s 5s 18 20 mph 1015.7mb 61f 57f
12:50am 5ft 8s 5s 18 20 mph 1015.9mb 61f 57f
Mon 09/29 11:50pm 5ft 8s 5s 18 20 mph 1016.1mb 61f 57f
10:50pm 5ft 7s 5s 16 20 mph 1016mb 61f 58f
9:50pm 5ft 6s 5s 16 18 mph 1016.2mb 61f 58f
8:50pm 3.5ft 6s 4s 16 20 mph 1016mb 61f 59f
7:50pm 3ft 5s 4s 16 20 mph 1016mb 61f 59f
6:50pm 2.5ft 4s 4s 16 20 mph 1015.4mb 62f 60f
5:50pm 2.5ft 3s 3s 16 18 mph 1015.2mb 62f 60f
4:50pm 1.6ft 3s 3s 16 18 mph 1014.7mb 62f 62f
3:50pm 1ft 2s 3s 13 18 mph 1014.2mb 62f 62f
2:50pm 1ft 8s 4s 11 13 mph 1014.3mb 62f 63f
1:50pm 1ft 8s 5s 7 9 mph 1014.8mb 62f 63f
12:50pm 1ft 8s 5s 9
mph
1014.6mb 62f 63f
11:50am 1ft 7s 6s 2
mph
1015mb 62f 63f
10:50am 1ft 8s 6s 2
mph
1015.1mb 62f 63f
9:50am 1ft 8s 5s 4 7 mph 1015.2mb 62f 63f
8:50am 0.7ft  -  5s 7
mph
1015.3mb 62f 62f
7:50am 1ft 8s 5s 4 7 mph 1014.9mb 62f 62f
6:50am 1ft 8s 4s 7
mph
1014.6mb 62f 62f
5:50am 1ft 8s 4s 7 9 mph 1014.2mb 62f 62f
4:50am 1ft 9s 4s 7
mph
1014.1mb 62f 63f
3:50am 1.3ft 9s 3s 9 11 mph 1014.1mb 62f 63f
2:50am 1.3ft 8s 4s 9 11 mph 1014.3mb 62f 63f
1:50am 1.6ft 8s 4s 9
mph
1014.8mb 62f 64f
12:50am 1.3ft 3s 3s 11 13 mph 1014.8mb 62f 64f
Sun 09/28 11:50pm 1.3ft 8s 4s 9 11 mph 1015.3mb 62f 64f
10:50pm 1.3ft 7s 4s 9 11 mph 1015.5mb 62f 65f
9:50pm 1.3ft 8s 4s 9
mph
1015.7mb 62f 65f
8:50pm 1.3ft 8s 4s 9
mph
1016mb 62f 66f
7:50pm 1.3ft 3s 4s 9
mph
1015.8mb 62f 69f
6:50pm 1ft 7s 4s 7 9 mph 1016mb 62f 65f
5:50pm 1ft 7s 4s 9
mph
1015.9mb 63f 67f
4:50pm 1ft 8s 4s 9 11 mph 1015.8mb 63f 67f
3:50pm 1ft 10s 4s 9
mph
1016.2mb 64f 67f
2:50pm 1.3ft 8s 5s 9
mph
1016.9mb 63f 66f
1:50pm 1.3ft 9s 6s 7 9 mph 1017.5mb 63f 65f
12:50pm 1.3ft 7s 5s 9
mph
1018.4mb 63f 65f
11:50am 1.3ft 7s 6s 7 9 mph 1019.2mb 63f 63f
10:50am 1.3ft 8s 6s 4 7 mph 1020.2mb 62f 63f
9:50am 1.3ft 8s 6s 4
mph
1020.8mb 62f 62f
8:50am 1.3ft 8s 6s 4
mph
1021.5mb 61f 62f
7:50am 1ft 8s 6s 4 7 mph 1021.6mb 61f 62f
6:50am 1ft 7s 6s 7
mph
1021.3mb 61f 61f
5:50am 1ft 7s 6s 4 7 mph 1021mb 61f 61f
4:50am 1ft 8s 6s 4 7 mph 1020.8mb 61f 61f
3:50am 1.3ft 8s 6s 7
mph
1020.7mb 61f 62f
2:50am 1.6ft 6s 6s 7
mph
1020.9mb 61f 62f
1:50am 1.6ft 6s 6s 7 9 mph 1021.1mb 62f 62f
12:50am 1.6ft 6s 6s 7 9 mph 1021.2mb 62f 62f
Sat 09/27 11:50pm 1.6ft 6s 6s 4 7 mph 1021.3mb 62f 63f
10:50pm 1.3ft 6s 6s 7
mph
1021.4mb 62f 63f
9:50pm 1.3ft 6s 6s 7
mph
1021.5mb 63f 64f
8:50pm 1.3ft 7s 6s 7 9 mph 1021.4mb 63f 65f
7:50pm 1ft 7s 5s 7 9 mph 1021.1mb 64f 66f
6:50pm 1.3ft 8s 5s 7
mph
1020.7mb 64f 66f